sensor_id;sensor_type;location;lat;lon;timestamp;P1;durP1;ratioP1;P2;durP2;ratioP2
50773;SDS011;36745;48.544;8.918;2023-12-28T00:00:40;12.27;;;9.35;;
50773;SDS011;36745;48.544;8.918;2023-12-28T00:04:00;15.70;;;9.18;;
50773;SDS011;36745;48.544;8.918;2023-12-28T00:07:20;13.07;;;9.82;;
50773;SDS011;36745;48.544;8.918;2023-12-28T00:10:40;17.77;;;10.98;;
50773;SDS011;36745;48.544;8.918;2023-12-28T00:13:59;14.85;;;10.73;;
50773;SDS011;36745;48.544;8.918;2023-12-28T00:17:19;16.88;;;11.15;;
50773;SDS011;36745;48.544;8.918;2023-12-28T00:20:39;15.88;;;9.07;;
50773;SDS011;36745;48.544;8.918;2023-12-28T00:23:59;12.10;;;8.82;;
50773;SDS011;36745;48.544;8.918;2023-12-28T00:27:18;12.00;;;9.40;;
50773;SDS011;36745;48.544;8.918;2023-12-28T00:30:38;12.63;;;9.23;;
50773;SDS011;36745;48.544;8.918;2023-12-28T00:33:58;14.23;;;9.60;;
50773;SDS011;36745;48.544;8.918;2023-12-28T00:37:18;12.90;;;9.13;;
50773;SDS011;36745;48.544;8.918;2023-12-28T00:40:37;13.85;;;9.20;;
50773;SDS011;36745;48.544;8.918;2023-12-28T00:43:57;10.65;;;8.02;;
50773;SDS011;36745;48.544;8.918;2023-12-28T00:47:17;12.85;;;9.10;;
50773;SDS011;36745;48.544;8.918;2023-12-28T00:50:37;12.52;;;8.18;;
50773;SDS011;36745;48.544;8.918;2023-12-28T00:53:57;10.38;;;8.02;;
50773;SDS011;36745;48.544;8.918;2023-12-28T00:57:16;11.85;;;8.05;;
50773;SDS011;36745;48.544;8.918;2023-12-28T01:00:36;10.73;;;7.38;;
50773;SDS011;36745;48.544;8.918;2023-12-28T01:03:56;12.13;;;7.80;;
50773;SDS011;36745;48.544;8.918;2023-12-28T01:07:16;13.65;;;7.82;;
50773;SDS011;36745;48.544;8.918;2023-12-28T01:10:36;9.45;;;7.15;;
50773;SDS011;36745;48.544;8.918;2023-12-28T01:13:56;11.45;;;7.82;;
50773;SDS011;36745;48.544;8.918;2023-12-28T01:17:16;12.60;;;8.80;;
50773;SDS011;36745;48.544;8.918;2023-12-28T01:20:38;10.40;;;7.70;;
50773;SDS011;36745;48.544;8.918;2023-12-28T01:23:58;10.18;;;7.30;;
50773;SDS011;36745;48.544;8.918;2023-12-28T01:27:17;11.90;;;8.25;;
50773;SDS011;36745;48.544;8.918;2023-12-28T01:30:37;15.32;;;8.82;;
50773;SDS011;36745;48.544;8.918;2023-12-28T01:34:00;11.85;;;8.27;;
50773;SDS011;36745;48.544;8.918;2023-12-28T01:37:36;13.43;;;8.75;;
50773;SDS011;36745;48.544;8.918;2023-12-28T01:40:56;11.63;;;7.90;;
50773;SDS011;36745;48.544;8.918;2023-12-28T01:44:16;10.10;;;7.65;;
50773;SDS011;36745;48.544;8.918;2023-12-28T01:47:36;10.43;;;7.55;;
50773;SDS011;36745;48.544;8.918;2023-12-28T01:50:56;15.00;;;7.57;;
50773;SDS011;36745;48.544;8.918;2023-12-28T01:54:16;12.32;;;7.65;;
50773;SDS011;36745;48.544;8.918;2023-12-28T01:57:36;12.50;;;8.32;;
50773;SDS011;36745;48.544;8.918;2023-12-28T02:00:55;15.63;;;8.10;;
50773;SDS011;36745;48.544;8.918;2023-12-28T02:04:16;9.98;;;6.95;;
50773;SDS011;36745;48.544;8.918;2023-12-28T02:07:36;13.43;;;7.97;;
50773;SDS011;36745;48.544;8.918;2023-12-28T02:10:56;7.90;;;6.72;;
50773;SDS011;36745;48.544;8.918;2023-12-28T02:14:16;13.02;;;7.90;;
50773;SDS011;36745;48.544;8.918;2023-12-28T02:17:43;13.40;;;7.95;;
50773;SDS011;36745;48.544;8.918;2023-12-28T02:21:18;10.27;;;7.28;;
50773;SDS011;36745;48.544;8.918;2023-12-28T02:28:23;9.82;;;7.20;;
50773;SDS011;36745;48.544;8.918;2023-12-28T02:31:45;10.23;;;6.82;;
50773;SDS011;36745;48.544;8.918;2023-12-28T02:35:29;10.18;;;7.45;;
50773;SDS011;36745;48.544;8.918;2023-12-28T02:38:49;9.68;;;6.72;;
50773;SDS011;36745;48.544;8.918;2023-12-28T02:42:11;9.30;;;6.38;;
50773;SDS011;36745;48.544;8.918;2023-12-28T02:45:31;10.20;;;6.90;;
50773;SDS011;36745;48.544;8.918;2023-12-28T02:48:51;11.13;;;6.68;;
50773;SDS011;36745;48.544;8.918;2023-12-28T02:52:13;9.57;;;6.45;;
50773;SDS011;36745;48.544;8.918;2023-12-28T02:55:33;8.10;;;5.57;;
50773;SDS011;36745;48.544;8.918;2023-12-28T02:58:52;6.60;;;5.15;;
50773;SDS011;36745;48.544;8.918;2023-12-28T03:02:12;8.13;;;5.20;;
50773;SDS011;36745;48.544;8.918;2023-12-28T03:05:32;7.47;;;5.57;;
50773;SDS011;36745;48.544;8.918;2023-12-28T03:08:52;10.07;;;6.18;;
50773;SDS011;36745;48.544;8.918;2023-12-28T03:12:12;9.15;;;6.22;;
50773;SDS011;36745;48.544;8.918;2023-12-28T03:15:32;8.80;;;6.13;;
50773;SDS011;36745;48.544;8.918;2023-12-28T03:18:51;7.93;;;5.75;;
50773;SDS011;36745;48.544;8.918;2023-12-28T03:22:11;8.75;;;6.00;;
50773;SDS011;36745;48.544;8.918;2023-12-28T03:25:31;13.85;;;7.63;;
50773;SDS011;36745;48.544;8.918;2023-12-28T03:28:51;12.93;;;7.55;;
50773;SDS011;36745;48.544;8.918;2023-12-28T03:32:10;9.95;;;6.65;;
50773;SDS011;36745;48.544;8.918;2023-12-28T03:35:30;12.70;;;7.47;;
50773;SDS011;36745;48.544;8.918;2023-12-28T03:38:51;12.43;;;7.85;;
50773;SDS011;36745;48.544;8.918;2023-12-28T03:42:11;11.98;;;7.53;;
50773;SDS011;36745;48.544;8.918;2023-12-28T03:45:31;11.50;;;6.60;;
50773;SDS011;36745;48.544;8.918;2023-12-28T03:48:51;10.48;;;7.28;;
50773;SDS011;36745;48.544;8.918;2023-12-28T03:52:11;10.45;;;6.43;;
50773;SDS011;36745;48.544;8.918;2023-12-28T03:55:31;10.25;;;6.60;;
50773;SDS011;36745;48.544;8.918;2023-12-28T03:58:51;11.50;;;6.63;;
50773;SDS011;36745;48.544;8.918;2023-12-28T04:02:11;10.18;;;6.60;;
50773;SDS011;36745;48.544;8.918;2023-12-28T04:05:31;9.88;;;6.13;;
50773;SDS011;36745;48.544;8.918;2023-12-28T04:08:50;10.35;;;5.82;;
50773;SDS011;36745;48.544;8.918;2023-12-28T04:12:10;8.50;;;6.00;;
50773;SDS011;36745;48.544;8.918;2023-12-28T04:15:30;11.00;;;6.28;;
50773;SDS011;36745;48.544;8.918;2023-12-28T04:18:50;9.32;;;6.38;;
50773;SDS011;36745;48.544;8.918;2023-12-28T04:22:09;13.85;;;9.38;;
50773;SDS011;36745;48.544;8.918;2023-12-28T04:25:29;20.00;;;13.95;;
50773;SDS011;36745;48.544;8.918;2023-12-28T04:28:49;23.08;;;15.80;;
50773;SDS011;36745;48.544;8.918;2023-12-28T04:32:09;16.80;;;12.10;;
50773;SDS011;36745;48.544;8.918;2023-12-28T04:35:29;17.50;;;12.50;;
50773;SDS011;36745;48.544;8.918;2023-12-28T04:38:49;11.93;;;8.93;;
50773;SDS011;36745;48.544;8.918;2023-12-28T04:42:09;11.88;;;7.78;;
50773;SDS011;36745;48.544;8.918;2023-12-28T04:45:29;11.52;;;7.47;;
50773;SDS011;36745;48.544;8.918;2023-12-28T04:48:48;9.15;;;6.28;;
50773;SDS011;36745;48.544;8.918;2023-12-28T04:52:08;9.45;;;5.00;;
50773;SDS011;36745;48.544;8.918;2023-12-28T04:55:28;24.38;;;11.50;;
50773;SDS011;36745;48.544;8.918;2023-12-28T04:58:47;18.85;;;10.30;;
50773;SDS011;36745;48.544;8.918;2023-12-28T05:02:07;38.33;;;17.33;;
50773;SDS011;36745;48.544;8.918;2023-12-28T05:05:27;13.80;;;7.80;;
50773;SDS011;36745;48.544;8.918;2023-12-28T05:08:47;29.58;;;13.82;;
50773;SDS011;36745;48.544;8.918;2023-12-28T05:12:07;42.35;;;18.17;;
50773;SDS011;36745;48.544;8.918;2023-12-28T05:15:27;27.83;;;12.98;;
50773;SDS011;36745;48.544;8.918;2023-12-28T05:18:47;55.28;;;20.85;;
50773;SDS011;36745;48.544;8.918;2023-12-28T05:22:06;43.30;;;17.30;;
50773;SDS011;36745;48.544;8.918;2023-12-28T05:25:29;27.97;;;12.27;;
50773;SDS011;36745;48.544;8.918;2023-12-28T05:28:49;24.33;;;11.93;;
50773;SDS011;36745;48.544;8.918;2023-12-28T05:32:09;64.15;;;21.90;;
50773;SDS011;36745;48.544;8.918;2023-12-28T05:35:29;99.95;;;36.20;;
50773;SDS011;36745;48.544;8.918;2023-12-28T05:38:48;120.05;;;40.08;;
50773;SDS011;36745;48.544;8.918;2023-12-28T05:42:08;75.97;;;30.45;;
50773;SDS011;36745;48.544;8.918;2023-12-28T05:45:28;32.42;;;13.32;;
50773;SDS011;36745;48.544;8.918;2023-12-28T05:48:48;31.48;;;12.30;;
50773;SDS011;36745;48.544;8.918;2023-12-28T05:52:08;12.95;;;7.00;;
50773;SDS011;36745;48.544;8.918;2023-12-28T05:55:28;36.10;;;14.40;;
50773;SDS011;36745;48.544;8.918;2023-12-28T05:58:48;30.75;;;12.65;;
50773;SDS011;36745;48.544;8.918;2023-12-28T06:02:07;21.98;;;9.50;;
50773;SDS011;36745;48.544;8.918;2023-12-28T06:05:27;20.08;;;9.70;;
50773;SDS011;36745;48.544;8.918;2023-12-28T06:08:47;17.63;;;7.75;;
50773;SDS011;36745;48.544;8.918;2023-12-28T06:12:07;13.38;;;8.15;;
50773;SDS011;36745;48.544;8.918;2023-12-28T06:15:27;14.40;;;7.22;;
50773;SDS011;36745;48.544;8.918;2023-12-28T06:18:46;252.10;;;68.07;;
50773;SDS011;36745;48.544;8.918;2023-12-28T06:22:06;138.98;;;39.70;;
50773;SDS011;36745;48.544;8.918;2023-12-28T06:25:26;67.50;;;23.38;;
50773;SDS011;36745;48.544;8.918;2023-12-28T06:28:46;52.03;;;19.05;;
50773;SDS011;36745;48.544;8.918;2023-12-28T06:32:06;38.28;;;15.07;;
50773;SDS011;36745;48.544;8.918;2023-12-28T06:35:26;45.92;;;16.73;;
50773;SDS011;36745;48.544;8.918;2023-12-28T06:38:45;58.10;;;21.85;;
50773;SDS011;36745;48.544;8.918;2023-12-28T06:42:05;109.00;;;60.00;;
50773;SDS011;36745;48.544;8.918;2023-12-28T06:45:25;72.28;;;33.80;;
50773;SDS011;36745;48.544;8.918;2023-12-28T06:48:47;65.00;;;27.83;;
50773;SDS011;36745;48.544;8.918;2023-12-28T06:52:07;62.47;;;32.47;;
50773;SDS011;36745;48.544;8.918;2023-12-28T06:55:26;47.63;;;21.52;;
50773;SDS011;36745;48.544;8.918;2023-12-28T06:58:46;42.25;;;23.98;;
50773;SDS011;36745;48.544;8.918;2023-12-28T07:02:06;24.25;;;14.13;;
50773;SDS011;36745;48.544;8.918;2023-12-28T07:05:26;13.15;;;8.20;;
50773;SDS011;36745;48.544;8.918;2023-12-28T07:08:45;16.30;;;9.25;;
50773;SDS011;36745;48.544;8.918;2023-12-28T07:12:05;14.38;;;9.07;;
50773;SDS011;36745;48.544;8.918;2023-12-28T07:15:25;9.07;;;6.28;;
50773;SDS011;36745;48.544;8.918;2023-12-28T07:18:45;18.60;;;11.32;;
50773;SDS011;36745;48.544;8.918;2023-12-28T07:22:05;12.55;;;7.38;;
50773;SDS011;36745;48.544;8.918;2023-12-28T07:25:25;11.43;;;7.10;;
50773;SDS011;36745;48.544;8.918;2023-12-28T07:28:45;11.93;;;7.15;;
50773;SDS011;36745;48.544;8.918;2023-12-28T07:32:07;9.05;;;5.30;;
50773;SDS011;36745;48.544;8.918;2023-12-28T07:35:29;14.90;;;8.63;;
50773;SDS011;36745;48.544;8.918;2023-12-28T07:38:49;13.25;;;8.30;;
50773;SDS011;36745;48.544;8.918;2023-12-28T07:42:08;23.58;;;15.13;;
50773;SDS011;36745;48.544;8.918;2023-12-28T07:45:29;51.42;;;34.50;;
50773;SDS011;36745;48.544;8.918;2023-12-28T07:48:48;35.78;;;20.52;;
50773;SDS011;36745;48.544;8.918;2023-12-28T07:52:08;37.05;;;24.98;;
50773;SDS011;36745;48.544;8.918;2023-12-28T07:55:28;28.95;;;18.45;;
50773;SDS011;36745;48.544;8.918;2023-12-28T07:58:48;28.25;;;19.23;;
50773;SDS011;36745;48.544;8.918;2023-12-28T08:02:07;19.38;;;13.88;;
50773;SDS011;36745;48.544;8.918;2023-12-28T08:05:27;25.77;;;17.63;;
50773;SDS011;36745;48.544;8.918;2023-12-28T08:08:47;27.02;;;20.65;;
50773;SDS011;36745;48.544;8.918;2023-12-28T08:12:07;29.15;;;21.15;;
50773;SDS011;36745;48.544;8.918;2023-12-28T08:15:27;30.10;;;21.63;;
50773;SDS011;36745;48.544;8.918;2023-12-28T08:18:47;24.33;;;17.40;;
50773;SDS011;36745;48.544;8.918;2023-12-28T08:22:07;28.00;;;17.38;;
50773;SDS011;36745;48.544;8.918;2023-12-28T08:25:26;26.50;;;19.30;;
50773;SDS011;36745;48.544;8.918;2023-12-28T08:28:48;28.50;;;19.85;;
50773;SDS011;36745;48.544;8.918;2023-12-28T08:32:07;25.25;;;16.52;;
50773;SDS011;36745;48.544;8.918;2023-12-28T08:35:27;21.58;;;15.10;;
50773;SDS011;36745;48.544;8.918;2023-12-28T08:38:47;25.00;;;16.13;;
50773;SDS011;36745;48.544;8.918;2023-12-28T08:42:07;23.00;;;16.25;;
50773;SDS011;36745;48.544;8.918;2023-12-28T08:45:27;19.05;;;12.40;;
50773;SDS011;36745;48.544;8.918;2023-12-28T08:48:47;72.13;;;40.28;;
50773;SDS011;36745;48.544;8.918;2023-12-28T08:52:06;47.78;;;28.35;;
50773;SDS011;36745;48.544;8.918;2023-12-28T08:55:26;33.78;;;20.88;;
50773;SDS011;36745;48.544;8.918;2023-12-28T08:58:46;10.45;;;7.80;;
50773;SDS011;36745;48.544;8.918;2023-12-28T09:02:06;51.03;;;30.20;;
50773;SDS011;36745;48.544;8.918;2023-12-28T09:05:26;24.88;;;16.27;;
50773;SDS011;36745;48.544;8.918;2023-12-28T09:08:51;8.10;;;5.25;;
50773;SDS011;36745;48.544;8.918;2023-12-28T09:12:11;11.30;;;6.90;;
50773;SDS011;36745;48.544;8.918;2023-12-28T09:15:31;18.85;;;13.25;;
50773;SDS011;36745;48.544;8.918;2023-12-28T09:18:51;13.20;;;7.07;;
50773;SDS011;36745;48.544;8.918;2023-12-28T09:22:11;10.55;;;8.05;;
50773;SDS011;36745;48.544;8.918;2023-12-28T09:25:31;14.38;;;9.20;;
50773;SDS011;36745;48.544;8.918;2023-12-28T09:28:51;14.20;;;8.30;;
50773;SDS011;36745;48.544;8.918;2023-12-28T09:32:11;12.90;;;7.75;;
50773;SDS011;36745;48.544;8.918;2023-12-28T09:35:31;10.43;;;6.03;;
50773;SDS011;36745;48.544;8.918;2023-12-28T09:38:50;12.80;;;7.57;;
50773;SDS011;36745;48.544;8.918;2023-12-28T09:42:14;5.25;;;4.10;;
50773;SDS011;36745;48.544;8.918;2023-12-28T09:45:36;12.20;;;7.35;;
50773;SDS011;36745;48.544;8.918;2023-12-28T09:48:56;19.67;;;12.80;;
50773;SDS011;36745;48.544;8.918;2023-12-28T09:52:17;45.83;;;28.25;;
50773;SDS011;36745;48.544;8.918;2023-12-28T09:55:37;48.65;;;29.02;;
50773;SDS011;36745;48.544;8.918;2023-12-28T09:58:57;44.08;;;26.75;;
50773;SDS011;36745;48.544;8.918;2023-12-28T10:02:18;43.38;;;30.00;;
50773;SDS011;36745;48.544;8.918;2023-12-28T10:05:40;30.80;;;21.48;;
50773;SDS011;36745;48.544;8.918;2023-12-28T10:09:00;22.02;;;13.77;;
50773;SDS011;36745;48.544;8.918;2023-12-28T10:12:20;14.90;;;10.13;;
50773;SDS011;36745;48.544;8.918;2023-12-28T10:15:40;10.25;;;6.65;;
50773;SDS011;36745;48.544;8.918;2023-12-28T10:18:59;10.43;;;5.90;;
50773;SDS011;36745;48.544;8.918;2023-12-28T10:22:19;6.03;;;4.63;;
50773;SDS011;36745;48.544;8.918;2023-12-28T10:25:39;13.15;;;7.78;;
50773;SDS011;36745;48.544;8.918;2023-12-28T10:28:59;22.70;;;15.70;;
50773;SDS011;36745;48.544;8.918;2023-12-28T10:32:20;12.95;;;10.02;;
50773;SDS011;36745;48.544;8.918;2023-12-28T10:35:42;11.50;;;7.47;;
50773;SDS011;36745;48.544;8.918;2023-12-28T10:39:04;11.52;;;7.75;;
50773;SDS011;36745;48.544;8.918;2023-12-28T10:42:31;23.52;;;15.80;;
50773;SDS011;36745;48.544;8.918;2023-12-28T10:45:52;23.58;;;14.98;;
50773;SDS011;36745;48.544;8.918;2023-12-28T10:49:16;14.43;;;7.32;;
50773;SDS011;36745;48.544;8.918;2023-12-28T10:52:36;8.93;;;5.57;;
50773;SDS011;36745;48.544;8.918;2023-12-28T11:00:10;127.82;;;41.45;;
50773;SDS011;36745;48.544;8.918;2023-12-28T11:03:34;69.30;;;24.10;;
50773;SDS011;36745;48.544;8.918;2023-12-28T11:06:57;15.23;;;7.70;;
50773;SDS011;36745;48.544;8.918;2023-12-28T11:10:19;22.05;;;8.57;;
50773;SDS011;36745;48.544;8.918;2023-12-28T11:13:42;13.55;;;6.03;;
50773;SDS011;36745;48.544;8.918;2023-12-28T11:17:04;129.73;;;55.55;;
50773;SDS011;36745;48.544;8.918;2023-12-28T11:20:24;65.07;;;31.25;;
50773;SDS011;36745;48.544;8.918;2023-12-28T11:23:44;311.70;;;104.20;;
50773;SDS011;36745;48.544;8.918;2023-12-28T11:27:06;194.95;;;69.53;;
50773;SDS011;36745;48.544;8.918;2023-12-28T11:30:26;45.42;;;22.15;;
50773;SDS011;36745;48.544;8.918;2023-12-28T11:33:47;88.45;;;42.40;;
50773;SDS011;36745;48.544;8.918;2023-12-28T11:37:14;125.28;;;65.20;;
50773;SDS011;36745;48.544;8.918;2023-12-28T11:40:41;88.53;;;45.88;;
50773;SDS011;36745;48.544;8.918;2023-12-28T11:44:03;14.18;;;7.78;;
50773;SDS011;36745;48.544;8.918;2023-12-28T11:47:24;24.38;;;11.27;;
50773;SDS011;36745;48.544;8.918;2023-12-28T11:50:46;15.32;;;7.60;;
50773;SDS011;36745;48.544;8.918;2023-12-28T11:54:06;14.45;;;6.32;;
50773;SDS011;36745;48.544;8.918;2023-12-28T11:57:25;8.38;;;5.40;;
50773;SDS011;36745;48.544;8.918;2023-12-28T12:00:45;9.40;;;5.43;;
50773;SDS011;36745;48.544;8.918;2023-12-28T12:04:07;7.45;;;4.47;;
50773;SDS011;36745;48.544;8.918;2023-12-28T12:07:27;3.88;;;2.40;;
50773;SDS011;36745;48.544;8.918;2023-12-28T12:10:46;5.18;;;3.30;;
50773;SDS011;36745;48.544;8.918;2023-12-28T12:14:09;48.92;;;33.60;;
50773;SDS011;36745;48.544;8.918;2023-12-28T12:17:30;11.23;;;7.20;;
50773;SDS011;36745;48.544;8.918;2023-12-28T12:20:50;7.45;;;4.00;;
50773;SDS011;36745;48.544;8.918;2023-12-28T12:24:10;5.82;;;3.10;;
50773;SDS011;36745;48.544;8.918;2023-12-28T12:27:29;6.97;;;2.40;;
50773;SDS011;36745;48.544;8.918;2023-12-28T12:30:53;5.03;;;2.47;;
50773;SDS011;36745;48.544;8.918;2023-12-28T12:34:17;3.90;;;2.38;;
50773;SDS011;36745;48.544;8.918;2023-12-28T12:37:37;5.68;;;2.70;;
50773;SDS011;36745;48.544;8.918;2023-12-28T12:40:57;5.22;;;2.25;;
50773;SDS011;36745;48.544;8.918;2023-12-28T12:44:19;6.20;;;2.22;;
50773;SDS011;36745;48.544;8.918;2023-12-28T12:47:39;2.67;;;1.92;;
50773;SDS011;36745;48.544;8.918;2023-12-28T12:51:01;2.83;;;1.80;;
50773;SDS011;36745;48.544;8.918;2023-12-28T12:54:22;2.47;;;1.58;;
50773;SDS011;36745;48.544;8.918;2023-12-28T12:57:42;3.33;;;1.70;;
50773;SDS011;36745;48.544;8.918;2023-12-28T13:01:02;2.90;;;2.00;;
50773;SDS011;36745;48.544;8.918;2023-12-28T13:04:22;3.28;;;1.83;;
50773;SDS011;36745;48.544;8.918;2023-12-28T13:07:41;8.63;;;4.30;;
50773;SDS011;36745;48.544;8.918;2023-12-28T13:11:01;11.85;;;5.70;;
50773;SDS011;36745;48.544;8.918;2023-12-28T13:14:21;27.92;;;11.98;;
50773;SDS011;36745;48.544;8.918;2023-12-28T13:17:41;10.30;;;4.32;;
50773;SDS011;36745;48.544;8.918;2023-12-28T13:21:02;4.28;;;2.53;;
50773;SDS011;36745;48.544;8.918;2023-12-28T13:24:22;4.47;;;2.10;;
50773;SDS011;36745;48.544;8.918;2023-12-28T13:27:42;4.97;;;1.95;;
50773;SDS011;36745;48.544;8.918;2023-12-28T13:31:02;8.50;;;3.17;;
50773;SDS011;36745;48.544;8.918;2023-12-28T13:34:22;6.15;;;3.63;;
50773;SDS011;36745;48.544;8.918;2023-12-28T13:37:42;3.75;;;2.85;;
50773;SDS011;36745;48.544;8.918;2023-12-28T13:41:02;5.53;;;3.58;;
50773;SDS011;36745;48.544;8.918;2023-12-28T13:44:21;7.80;;;3.75;;
50773;SDS011;36745;48.544;8.918;2023-12-28T13:47:41;7.57;;;4.50;;
50773;SDS011;36745;48.544;8.918;2023-12-28T13:51:02;8.15;;;4.85;;
50773;SDS011;36745;48.544;8.918;2023-12-28T13:54:22;9.48;;;5.40;;
50773;SDS011;36745;48.544;8.918;2023-12-28T13:57:42;27.85;;;18.88;;
50773;SDS011;36745;48.544;8.918;2023-12-28T14:01:02;24.95;;;15.25;;
50773;SDS011;36745;48.544;8.918;2023-12-28T14:04:22;17.65;;;10.35;;
50773;SDS011;36745;48.544;8.918;2023-12-28T14:07:43;22.55;;;14.48;;
50773;SDS011;36745;48.544;8.918;2023-12-28T14:11:02;20.90;;;14.05;;
50773;SDS011;36745;48.544;8.918;2023-12-28T14:14:22;26.80;;;16.60;;
50773;SDS011;36745;48.544;8.918;2023-12-28T14:17:42;12.90;;;7.70;;
50773;SDS011;36745;48.544;8.918;2023-12-28T14:21:02;9.48;;;5.43;;
50773;SDS011;36745;48.544;8.918;2023-12-28T14:24:22;5.68;;;4.53;;
50773;SDS011;36745;48.544;8.918;2023-12-28T14:27:43;5.05;;;3.60;;
50773;SDS011;36745;48.544;8.918;2023-12-28T14:31:02;7.22;;;4.00;;
50773;SDS011;36745;48.544;8.918;2023-12-28T14:34:22;6.40;;;5.13;;
50773;SDS011;36745;48.544;8.918;2023-12-28T14:37:45;7.00;;;3.72;;
50773;SDS011;36745;48.544;8.918;2023-12-28T14:41:05;5.55;;;3.25;;
50773;SDS011;36745;48.544;8.918;2023-12-28T14:44:24;7.35;;;4.32;;
50773;SDS011;36745;48.544;8.918;2023-12-28T14:47:44;5.68;;;3.67;;
50773;SDS011;36745;48.544;8.918;2023-12-28T14:51:04;5.15;;;4.10;;
50773;SDS011;36745;48.544;8.918;2023-12-28T14:54:24;10.48;;;4.80;;
50773;SDS011;36745;48.544;8.918;2023-12-28T14:57:44;9.15;;;4.72;;
50773;SDS011;36745;48.544;8.918;2023-12-28T15:01:04;7.88;;;4.90;;
50773;SDS011;36745;48.544;8.918;2023-12-28T15:04:24;8.98;;;4.72;;
50773;SDS011;36745;48.544;8.918;2023-12-28T15:07:44;7.38;;;4.53;;
50773;SDS011;36745;48.544;8.918;2023-12-28T15:11:03;7.38;;;4.97;;
50773;SDS011;36745;48.544;8.918;2023-12-28T15:14:26;5.95;;;4.20;;
50773;SDS011;36745;48.544;8.918;2023-12-28T15:17:46;9.82;;;4.10;;
50773;SDS011;36745;48.544;8.918;2023-12-28T15:21:06;8.93;;;4.40;;
50773;SDS011;36745;48.544;8.918;2023-12-28T15:24:26;6.22;;;3.78;;
50773;SDS011;36745;48.544;8.918;2023-12-28T15:27:46;7.78;;;3.83;;
50773;SDS011;36745;48.544;8.918;2023-12-28T15:31:05;4.55;;;3.63;;
50773;SDS011;36745;48.544;8.918;2023-12-28T15:34:25;5.78;;;4.00;;
50773;SDS011;36745;48.544;8.918;2023-12-28T15:37:45;7.07;;;4.72;;
50773;SDS011;36745;48.544;8.918;2023-12-28T15:41:05;13.07;;;7.70;;
50773;SDS011;36745;48.544;8.918;2023-12-28T15:44:24;14.27;;;9.35;;
50773;SDS011;36745;48.544;8.918;2023-12-28T15:47:44;9.45;;;6.40;;
50773;SDS011;36745;48.544;8.918;2023-12-28T15:51:04;8.20;;;5.45;;
50773;SDS011;36745;48.544;8.918;2023-12-28T15:54:24;6.07;;;4.70;;
50773;SDS011;36745;48.544;8.918;2023-12-28T15:57:44;7.18;;;4.85;;
50773;SDS011;36745;48.544;8.918;2023-12-28T16:01:03;7.65;;;5.97;;
50773;SDS011;36745;48.544;8.918;2023-12-28T16:04:23;16.70;;;13.38;;
50773;SDS011;36745;48.544;8.918;2023-12-28T16:07:43;21.90;;;16.75;;
50773;SDS011;36745;48.544;8.918;2023-12-28T16:11:06;28.63;;;19.90;;
50773;SDS011;36745;48.544;8.918;2023-12-28T16:14:25;25.92;;;16.70;;
50773;SDS011;36745;48.544;8.918;2023-12-28T16:17:45;22.15;;;13.75;;
50773;SDS011;36745;48.544;8.918;2023-12-28T16:21:06;14.68;;;7.85;;
50773;SDS011;36745;48.544;8.918;2023-12-28T16:24:26;12.27;;;6.80;;
50773;SDS011;36745;48.544;8.918;2023-12-28T16:27:46;17.23;;;11.15;;
50773;SDS011;36745;48.544;8.918;2023-12-28T16:31:05;23.20;;;14.18;;
50773;SDS011;36745;48.544;8.918;2023-12-28T16:34:25;17.65;;;9.63;;
50773;SDS011;36745;48.544;8.918;2023-12-28T16:37:48;30.02;;;20.67;;
50773;SDS011;36745;48.544;8.918;2023-12-28T16:41:07;23.35;;;16.98;;
50773;SDS011;36745;48.544;8.918;2023-12-28T16:44:27;18.42;;;14.05;;
50773;SDS011;36745;48.544;8.918;2023-12-28T16:47:47;16.08;;;11.90;;
50773;SDS011;36745;48.544;8.918;2023-12-28T16:51:08;12.70;;;9.43;;
50773;SDS011;36745;48.544;8.918;2023-12-28T16:54:28;14.70;;;10.57;;
50773;SDS011;36745;48.544;8.918;2023-12-28T16:57:48;18.15;;;12.00;;
50773;SDS011;36745;48.544;8.918;2023-12-28T17:01:08;16.48;;;12.10;;
50773;SDS011;36745;48.544;8.918;2023-12-28T17:04:28;12.27;;;9.23;;
50773;SDS011;36745;48.544;8.918;2023-12-28T17:07:48;8.07;;;6.07;;
50773;SDS011;36745;48.544;8.918;2023-12-28T17:11:07;11.02;;;7.63;;
50773;SDS011;36745;48.544;8.918;2023-12-28T17:14:28;12.77;;;7.25;;
50773;SDS011;36745;48.544;8.918;2023-12-28T17:17:48;10.98;;;7.47;;
50773;SDS011;36745;48.544;8.918;2023-12-28T17:21:11;15.90;;;8.55;;
50773;SDS011;36745;48.544;8.918;2023-12-28T17:24:39;14.90;;;9.95;;
50773;SDS011;36745;48.544;8.918;2023-12-28T17:28:04;9.75;;;7.05;;
50773;SDS011;36745;48.544;8.918;2023-12-28T17:31:37;10.45;;;7.68;;
50773;SDS011;36745;48.544;8.918;2023-12-28T17:34:57;14.60;;;9.65;;
50773;SDS011;36745;48.544;8.918;2023-12-28T17:38:17;16.75;;;11.90;;
50773;SDS011;36745;48.544;8.918;2023-12-28T17:41:37;15.30;;;11.18;;
50773;SDS011;36745;48.544;8.918;2023-12-28T17:44:58;22.90;;;14.52;;
50773;SDS011;36745;48.544;8.918;2023-12-28T17:48:21;19.25;;;12.82;;
50773;SDS011;36745;48.544;8.918;2023-12-28T17:51:44;36.90;;;21.85;;
50773;SDS011;36745;48.544;8.918;2023-12-28T17:55:05;12.15;;;8.60;;
50773;SDS011;36745;48.544;8.918;2023-12-28T17:58:25;72.15;;;37.17;;
50773;SDS011;36745;48.544;8.918;2023-12-28T18:01:45;78.10;;;40.50;;
50773;SDS011;36745;48.544;8.918;2023-12-28T18:05:06;12.43;;;7.32;;
50773;SDS011;36745;48.544;8.918;2023-12-28T18:08:28;14.05;;;7.72;;
50773;SDS011;36745;48.544;8.918;2023-12-28T18:11:48;10.73;;;6.10;;
50773;SDS011;36745;48.544;8.918;2023-12-28T18:15:09;7.38;;;5.53;;
50773;SDS011;36745;48.544;8.918;2023-12-28T18:18:29;7.40;;;4.53;;
50773;SDS011;36745;48.544;8.918;2023-12-28T18:21:48;7.78;;;5.50;;
50773;SDS011;36745;48.544;8.918;2023-12-28T18:25:09;10.80;;;7.50;;
50773;SDS011;36745;48.544;8.918;2023-12-28T18:28:29;17.52;;;11.93;;
50773;SDS011;36745;48.544;8.918;2023-12-28T18:31:49;12.63;;;10.05;;
50773;SDS011;36745;48.544;8.918;2023-12-28T18:35:09;18.85;;;15.20;;
50773;SDS011;36745;48.544;8.918;2023-12-28T18:38:29;29.50;;;21.17;;
50773;SDS011;36745;48.544;8.918;2023-12-28T18:41:49;94.82;;;44.45;;
50773;SDS011;36745;48.544;8.918;2023-12-28T18:45:09;36.28;;;21.90;;
50773;SDS011;36745;48.544;8.918;2023-12-28T18:48:30;30.48;;;19.27;;
50773;SDS011;36745;48.544;8.918;2023-12-28T18:51:50;23.33;;;16.83;;
50773;SDS011;36745;48.544;8.918;2023-12-28T18:55:10;19.38;;;13.70;;
50773;SDS011;36745;48.544;8.918;2023-12-28T18:58:30;25.20;;;16.02;;
50773;SDS011;36745;48.544;8.918;2023-12-28T19:01:49;19.30;;;14.05;;
50773;SDS011;36745;48.544;8.918;2023-12-28T19:05:11;17.75;;;13.40;;
50773;SDS011;36745;48.544;8.918;2023-12-28T19:08:32;20.75;;;14.88;;
50773;SDS011;36745;48.544;8.918;2023-12-28T19:11:52;20.58;;;13.80;;
50773;SDS011;36745;48.544;8.918;2023-12-28T19:15:12;20.70;;;14.02;;
50773;SDS011;36745;48.544;8.918;2023-12-28T19:18:32;20.90;;;15.63;;
50773;SDS011;36745;48.544;8.918;2023-12-28T19:21:51;19.05;;;13.27;;
50773;SDS011;36745;48.544;8.918;2023-12-28T19:25:11;17.52;;;12.70;;
50773;SDS011;36745;48.544;8.918;2023-12-28T19:28:32;18.67;;;12.25;;
50773;SDS011;36745;48.544;8.918;2023-12-28T19:31:52;16.95;;;11.85;;
50773;SDS011;36745;48.544;8.918;2023-12-28T19:35:12;16.92;;;12.35;;
50773;SDS011;36745;48.544;8.918;2023-12-28T19:38:31;16.95;;;12.48;;
50773;SDS011;36745;48.544;8.918;2023-12-28T19:41:51;19.58;;;14.18;;
50773;SDS011;36745;48.544;8.918;2023-12-28T19:45:11;19.08;;;11.65;;
50773;SDS011;36745;48.544;8.918;2023-12-28T19:48:31;16.27;;;12.10;;
50773;SDS011;36745;48.544;8.918;2023-12-28T19:51:51;15.38;;;11.35;;
50773;SDS011;36745;48.544;8.918;2023-12-28T19:55:10;13.00;;;10.30;;